Meteo Giornale » Osservazioni meteo Italia » Catania-Sigonella

ore: 05:55 - Osservazioni Meteo Catania-Sigonella
Lat. 37° 24' N Lon. 14° 55' E Alt. 22 metri s.l.m.

sereno Europe/Rome

19 °C

Sereno

Temp. 24 Ore

19 °C

30 °C

Ovest

9.3 Km/h

Dew point 19 °C

Umidità 100 %

Visibilità  10 Km

Il sole sorge alle ore 06:22

Il sole tramonta alle ore 19:42

Data e Ora Cielo e Fenomeni T °C DP °C Um. % Pres. hPa Vis. km Vento km/h
Oggi h: 05:55 sereno Sereno 19 19 100 1017 10 O 9.3
Oggi h: 04:55 sereno Sereno 20 20 100 1017 10 N 5.5
Oggi h: 02:55 sereno Sereno 21 21 100 1017 10 O 13
Oggi h: 01:55 sereno Sereno 21 21 100 1017 10 O 9.3
Oggi h: 00:55 sereno Sereno 21 21 100 1017 10 SO 7.4
Ieri h: 23:55 sereno Sereno 22 22 100 1017 10 O 9.3
Ieri h: 22:55 poco_nuvoloso Poco Nuvoloso 22 22 100 1017 10 O 11.1
Ieri h: 21:55 poco_nuvoloso Poco Nuvoloso 22 22 100 1017 10 SO 11.1
Ieri h: 20:55 nuvoloso Nuvoloso 23 22 94 1017 10 O/SO 14.8
Ieri h: 19:55 nuvoloso Nuvoloso 23 22 94 1017 10 O/NO 18.5
Ieri h: 18:55 molto_nuvoloso Molto Nuvoloso 23 21 88 1018 10 NO 22.2
Ieri h: 17:55 molto_nuvoloso Molto Nuvoloso 28 22 69 1017 10 NE 11.1
Ieri h: 16:55 molto_nuvoloso Molto Nuvoloso 29 17 48 1017 10 E 16.7
Ieri h: 15:55 nuvoloso Nuvoloso 28 25 83 1017 10 E 20.3
Ieri h: 14:55 coperto_temporali Temporale 28 24 78 1017 10 E 29.6
Ieri h: 13:55 poco_nuvoloso Poco Nuvoloso 30 24 70 1017 10 E 29.6
Ieri h: 12:55 poco_nuvoloso Poco Nuvoloso 30 23 66 1018 10 E/NE 22.2
Ieri h: 11:55 poco_nuvoloso Poco Nuvoloso 30 24 70 1018 10 E 16.7
Ieri h: 10:55 poco_nuvoloso Poco Nuvoloso 30 24 70 1018 10 E 11.1
Ieri h: 09:55 poco_nuvoloso Poco Nuvoloso 28 21 65 1018 10 E 7.4
Ieri h: 08:55 poco_nuvoloso Poco Nuvoloso 26 17 57 1018 10 N 3.7
Ieri h: 07:55 nuvoloso Nuvoloso 22 19 83 1018 10 O 7.4